Saint-Gabriel-De-Brandon, Canada
Current Conditions -  °F | °C
As of 7:00 AM on Thursday 27 Nov 2014 (Local Time) from CYRQ Reporting Station
Scattered Clouds Scattered Clouds  
Wind Chill: 14°   Ceiling: Unl
Heat Index: 23°   Visibility: 9mi
Dew Point: 16°   Wind: 8mph
Humidity: 74%   Direction: 10°N
Pressure: 30"   Gusts: NA
Location:  46.28°N, 73.37°W
Report Text: CYRQ 271200Z AUTO 01007KT 9SM SCT180 M05/M09 A3000 RMK SLP162
Loading
Personal Weather Stations






























Interactive Weather Map New forecast layout! Learn more

10-Day Weather Forecast

Advertisements
Track Severe Weather on mobile